createdAt,value
2023-04-27T00:00:22.807Z,2.70
2023-04-27T00:05:27.605Z,3.00
2023-04-27T00:10:31.771Z,2.90
2023-04-27T00:15:34.606Z,3.20
2023-04-27T00:20:37.353Z,3.10
2023-04-27T00:25:41.591Z,3.42
2023-04-27T00:30:45.071Z,3.20
2023-04-27T00:35:47.960Z,3.30
2023-04-27T00:40:52.119Z,3.70
2023-04-27T00:45:55.944Z,3.72
2023-04-27T00:50:58.913Z,3.85
2023-04-27T00:56:03.534Z,3.83
2023-04-27T01:01:06.350Z,3.53
2023-04-27T01:06:09.239Z,3.58
2023-04-27T01:11:13.535Z,3.38
2023-04-27T01:16:18.547Z,3.50
2023-04-27T01:21:21.366Z,3.38
2023-04-27T01:26:25.539Z,3.63
2023-04-27T01:31:28.373Z,3.40
2023-04-27T01:36:31.830Z,3.38
2023-04-27T01:41:36.063Z,3.40
2023-04-27T01:46:39.760Z,3.40
2023-04-27T01:51:43.104Z,3.05
2023-04-27T01:56:47.310Z,3.45
2023-04-27T02:01:50.136Z,3.80
2023-04-27T02:06:52.963Z,3.88
2023-04-27T02:11:57.336Z,3.63
2023-04-27T02:17:01.850Z,3.92
2023-04-27T02:22:05.152Z,3.17
2023-04-27T02:27:09.377Z,3.22
2023-04-27T02:32:12.689Z,3.00
2023-04-27T02:37:15.517Z,2.92
2023-04-27T02:42:19.768Z,2.75
2023-04-27T02:47:22.508Z,2.38
2023-04-27T02:52:25.413Z,2.80
2023-04-27T02:57:30.073Z,2.40
2023-04-27T03:02:33.188Z,2.13
2023-04-27T03:07:36.120Z,2.55
2023-04-27T03:12:41.074Z,2.47
2023-04-27T03:17:43.885Z,2.22
2023-04-27T03:22:46.746Z,3.10
2023-04-27T03:27:50.916Z,3.30
2023-04-27T03:32:53.954Z,3.88
2023-04-27T03:37:56.719Z,4.30
2023-04-27T03:43:00.964Z,5.10
2023-04-27T03:48:03.861Z,4.07
2023-04-27T03:53:07.043Z,4.07
2023-04-27T03:58:12.067Z,5.20
2023-04-27T04:03:25.827Z,4.53
2023-04-27T04:08:28.827Z,4.97
2023-04-27T04:13:32.946Z,4.60
2023-04-27T04:18:36.203Z,4.85
2023-04-27T04:23:41.219Z,5.05
2023-04-27T04:28:45.858Z,4.13
2023-04-27T04:33:48.673Z,4.63
2023-04-27T04:38:53.770Z,4.30
2023-04-27T04:43:58.409Z,4.82
2023-04-27T04:49:02.400Z,4.05
2023-04-27T04:54:13.664Z,3.97
2023-04-27T04:59:17.896Z,4.30
2023-04-27T05:04:21.047Z,4.18
2023-04-27T05:09:25.430Z,4.13
2023-04-27T05:14:29.692Z,3.80
2023-04-27T05:19:32.716Z,4.00
2023-04-27T05:24:36.004Z,4.35
2023-04-27T05:29:41.658Z,4.68
2023-04-27T05:34:46.232Z,4.38
2023-04-27T05:39:50.260Z,4.43
2023-04-27T05:44:56.085Z,4.05
2023-04-27T05:49:59.187Z,4.78
2023-04-27T05:55:02.013Z,3.92
2023-04-27T06:00:11.179Z,3.60
2023-04-27T06:05:17.235Z,3.33
2023-04-27T06:10:20.036Z,3.10
2023-04-27T06:15:24.269Z,2.90
2023-04-27T06:20:27.043Z,2.70
2023-04-27T06:25:29.979Z,2.55
2023-04-27T06:30:34.616Z,3.00
2023-04-27T06:35:37.524Z,2.92
2023-04-27T06:40:40.733Z,3.17
2023-04-27T06:45:45.033Z,2.72
2023-04-27T06:50:48.514Z,2.80
2023-04-27T06:56:02.658Z,2.40
2023-04-27T07:01:10.073Z,2.40
2023-04-27T07:06:49.195Z,2.03
2023-04-27T07:11:54.434Z,2.00
2023-04-27T07:17:04.632Z,2.08
2023-04-27T07:22:08.957Z,2.10
2023-04-27T07:27:27.550Z,1.77
2023-04-27T07:32:32.854Z,2.20
2023-04-27T07:37:35.911Z,1.63
2023-04-27T07:42:39.570Z,1.77
2023-04-27T07:47:44.000Z,1.98
2023-04-27T07:52:47.302Z,2.10
2023-04-27T08:04:25.626Z,2.28
2023-04-27T08:09:29.974Z,2.28
2023-04-27T08:14:35.333Z,2.25
2023-04-27T08:19:38.236Z,1.55
2023-04-27T08:24:44.723Z,1.90
2023-04-27T08:29:48.373Z,2.53
2023-04-27T08:34:53.491Z,2.35
2023-04-27T08:39:57.844Z,2.80
2023-04-27T08:45:12.227Z,2.20
2023-04-27T08:50:15.002Z,2.00
2023-04-27T08:55:19.306Z,1.75
2023-04-27T09:00:22.747Z,2.63
2023-04-27T09:05:25.879Z,3.55
2023-04-27T09:10:30.434Z,4.82
2023-04-27T09:15:47.752Z,3.30
2023-04-27T09:20:54.428Z,2.53
2023-04-27T09:26:32.379Z,2.85
2023-04-27T09:32:06.874Z,2.08
2023-04-27T09:37:45.550Z,2.50
2023-04-27T09:42:50.434Z,2.20
2023-04-27T09:47:56.569Z,2.13
2023-04-27T09:52:59.695Z,1.80
2023-04-27T09:58:16.337Z,2.33
2023-04-27T10:03:27.669Z,2.78
2023-04-27T10:08:30.859Z,2.22
2023-04-27T10:13:35.118Z,2.20
2023-04-27T10:18:37.998Z,1.90
2023-04-27T10:23:48.732Z,2.00
2023-04-27T10:29:00.343Z,2.28
2023-04-27T10:34:10.042Z,1.98
2023-04-27T10:39:18.127Z,2.08
2023-04-27T10:45:11.076Z,2.10
2023-04-27T10:50:19.347Z,2.10
2023-04-27T11:15:04.647Z,2.70
2023-04-27T11:20:23.076Z,2.88
2023-04-27T11:25:55.361Z,2.90
2023-04-27T11:30:59.036Z,3.13
2023-04-27T11:36:07.176Z,2.75
2023-04-27T11:41:12.505Z,2.50
2023-04-27T11:46:15.495Z,2.97
2023-04-27T11:51:25.928Z,2.95
2023-04-27T11:56:37.733Z,2.92
2023-04-27T12:15:50.801Z,2.40
2023-04-27T12:20:53.720Z,2.80
2023-04-27T12:25:56.584Z,2.50
2023-04-27T12:31:06.551Z,2.78
2023-04-27T12:36:09.608Z,2.63
2023-04-27T12:41:12.554Z,2.65
2023-04-27T12:46:18.879Z,2.30
2023-04-27T12:58:00.734Z,2.65
2023-04-27T13:03:37.924Z,2.92
2023-04-27T13:08:41.970Z,2.65
2023-04-27T13:14:30.783Z,3.42
2023-04-27T13:20:00.523Z,3.50
2023-04-27T13:25:36.031Z,3.35
2023-04-27T13:36:47.777Z,3.15
2023-04-27T13:41:55.670Z,3.22
2023-04-27T13:47:06.880Z,3.15
2023-04-27T13:52:11.480Z,3.10
2023-04-27T13:57:14.433Z,3.17
2023-04-27T14:02:17.392Z,3.13
2023-04-27T14:07:21.740Z,2.85
2023-04-27T14:19:06.588Z,2.50
2023-04-27T14:31:24.248Z,2.65
2023-04-27T14:36:44.592Z,2.70
2023-04-27T14:42:25.295Z,2.90
2023-04-27T14:54:28.095Z,3.42
2023-04-27T15:00:00.824Z,3.33
2023-04-27T15:10:55.715Z,3.53
2023-04-27T15:16:36.157Z,3.42
2023-04-27T15:21:49.713Z,3.78
2023-04-27T15:27:22.092Z,3.83
2023-04-27T15:32:29.845Z,3.80
2023-04-27T15:37:37.796Z,4.35
2023-04-27T15:43:19.998Z,4.15
2023-04-27T15:48:48.940Z,4.90
2023-04-27T15:54:37.313Z,4.43
2023-04-27T15:59:44.034Z,4.20
2023-04-27T16:04:55.213Z,4.32
2023-04-27T16:11:18.502Z,4.72
2023-04-27T16:16:23.413Z,4.47
2023-04-27T16:21:28.030Z,5.00
2023-04-27T16:26:31.580Z,5.10
2023-04-27T16:31:35.732Z,4.70
2023-04-27T16:36:38.670Z,4.72
2023-04-27T16:41:41.417Z,5.22
2023-04-27T16:46:45.684Z,5.00
2023-04-27T16:51:49.062Z,5.63
2023-04-27T16:56:53.237Z,4.93
2023-04-27T17:02:09.093Z,5.18
2023-04-27T17:07:19.777Z,5.05
2023-04-27T17:12:22.606Z,5.35
2023-04-27T17:17:26.948Z,5.72
2023-04-27T17:22:54.330Z,5.70
2023-04-27T17:28:03.030Z,5.65
2023-04-27T17:33:07.261Z,5.93
2023-04-27T17:38:35.545Z,5.38
2023-04-27T17:44:34.927Z,6.33
2023-04-27T18:17:04.586Z,4.95
2023-04-27T19:13:07.153Z,6.00
2023-04-27T19:18:22.895Z,5.40
2023-04-27T19:23:32.404Z,5.63
2023-04-27T19:28:42.115Z,5.45
2023-04-27T19:51:25.438Z,5.70
2023-04-27T20:01:21.947Z,5.43
2023-04-27T20:06:24.832Z,5.13
2023-04-27T20:11:27.994Z,5.03
2023-04-27T20:16:32.240Z,5.68
2023-04-27T20:21:35.055Z,5.40
2023-04-27T20:26:37.867Z,6.18
2023-04-27T20:31:42.394Z,5.32
2023-04-27T20:36:45.463Z,5.68
2023-04-27T20:41:49.133Z,5.57
2023-04-27T20:46:53.429Z,5.80
2023-04-27T20:51:56.246Z,4.93
2023-04-27T20:57:02.103Z,5.60
2023-04-27T21:02:07.621Z,5.95
2023-04-27T21:07:10.516Z,6.70
2023-04-27T21:12:14.684Z,7.28
2023-04-27T21:17:18.744Z,8.30
2023-04-27T21:22:21.593Z,6.13
2023-04-27T21:27:33.456Z,5.93
2023-04-27T21:32:40.711Z,6.15
2023-04-27T21:37:43.631Z,5.28
2023-04-27T21:42:46.475Z,5.25
2023-04-27T21:47:50.820Z,5.65
2023-04-27T21:52:59.751Z,8.52
2023-04-27T21:58:04.625Z,5.10
2023-04-27T22:03:09.080Z,5.60
2023-04-27T22:08:12.173Z,6.32
2023-04-27T22:13:18.756Z,6.80
2023-04-27T22:18:23.811Z,6.90
2023-04-27T22:23:26.784Z,5.68
2023-04-27T22:28:29.706Z,5.78
2023-04-27T22:33:34.423Z,10.35
2023-04-27T22:38:37.224Z,5.90
2023-04-27T22:43:39.973Z,5.68
2023-04-27T22:48:45.037Z,5.30
2023-04-27T22:53:47.893Z,6.78
2023-04-27T22:58:51.640Z,6.20
2023-04-27T23:03:56.192Z,6.13
2023-04-27T23:08:59.122Z,6.30
2023-04-27T23:14:02.354Z,6.20
2023-04-27T23:19:06.493Z,6.53
2023-04-27T23:24:09.708Z,6.30
2023-04-27T23:29:12.660Z,6.70
2023-04-27T23:34:17.453Z,7.35
2023-04-27T23:39:20.603Z,7.45
2023-04-27T23:44:23.456Z,7.13
2023-04-27T23:49:27.633Z,7.30
2023-04-27T23:54:31.477Z,8.38
2023-04-27T23:59:35.322Z,8.20
